Flight Track Log - Related Links

Times and Time Zones

All times are in EDT time to prevent confusion due to time zone crossing. See the N2102C flight status page for this flight to view local times or setup timezone preferences in your user account.

Time Position Orientation Groundspeed Altitude Reporting Facility
EDT Latitude Longitude Course Direction KTS MPH feet Rate Location/Type
Mon 11:21:18 AM 40.4922 -85.6869 323° Northwest 96 110 3,500  Level Chicago Center
Mon 11:22:18 AM 40.5125 -85.7069 323° Northwest 95 109 4,000 482 Climbing Chicago Center
Mon 11:23:10 AM 40.5236 -85.7244 310° West 92 106 4,400 421 Climbing Chicago Center
Mon 11:24:12 AM 40.5269 -85.7594 277° West 102 117 4,800 339 Climbing Chicago Center
Mon 11:25:14 AM 40.5486 -85.7903 313° West 98 113 5,100 359 Climbing Chicago Center
Mon 11:26:09 AM 40.5636 -85.8161 307° West 96 110 5,500 417 Climbing Chicago Center
Mon 11:27:09 AM 40.5797 -85.8417 310° West 90 104 5,900 347 Climbing Chicago Center
Mon 11:28:10 AM 40.5956 -85.8642 313° West 86 99 6,200 347 Climbing Chicago Center
Mon 11:29:10 AM 40.6094 -85.8897 306° West 85 98 6,600 189 Climbing Chicago Center
Mon 11:30:17 AM 40.6294 -85.9181 313° West 98 113 6,600  Level Chicago Center
Mon 11:31:26 AM 40.6522 -85.9536 310° West 105 121 6,600  Level Chicago Center
Mon 11:32:18 AM 40.6692 -85.9831 307° West 111 128 6,600  Level Chicago Center
Mon 11:33:19 AM 40.6872 -86.0114 310° West 108 124 6,600  Level Chicago Center
Mon 11:34:32 AM 40.7097 -86.0508 307° West 107 123 6,600  Level Chicago Center
Mon 11:35:20 AM 40.7250 -86.0739 311° West 106 122 6,600  Level Chicago Center
Mon 11:36:21 AM 40.7428 -86.1050 307° West 105 121 6,600  Level Chicago Center
Mon 11:36:36 AM 40.7469 -86.1111 312° West 105 121 6,600  Level Chicago Center
Mon 11:37:15 AM 40.7608 -86.1278 318° Northwest 102 117 6,600  Level Chicago Center
Mon 11:37:38 AM 40.7647 -86.1383 296° West 101 116 6,600  Level Chicago Center
Mon 11:38:16 AM 40.7764 -86.1644 301° West 106 122 6,600  Level Chicago Center
Mon 11:38:40 AM 40.7808 -86.1728 305° West 106 122 6,600  Level Chicago Center
Mon 11:39:17 AM 40.7961 -86.1931 315° West 104 120 6,600  Level Chicago Center
Mon 11:39:42 AM 40.8000 -86.1997 308° West 103 119 6,600  Level Chicago Center
Mon 11:40:17 AM 40.8142 -86.2214 311° West 104 120 6,600  Level Chicago Center
Mon 11:40:45 AM 40.8206 -86.2272 325° Northwest 103 119 6,600  Level Chicago Center
Mon 11:41:12 AM 40.8322 -86.2444 312° West 104 120 6,600  Level Chicago Center
Mon 11:41:46 AM 40.8431 -86.2611 311° West 103 119 6,600  Level Chicago Center
Mon 11:42:12 AM 40.8500 -86.2756 302° West 104 120 6,600  Level Chicago Center
Mon 11:42:48 AM 40.8597 -86.2933 306° West 106 122 6,600  Level Chicago Center
Mon 11:43:13 AM 40.8675 -86.3097 302° West 104 120 6,600  Level Chicago Center
Mon 11:43:50 AM 40.8772 -86.3231 314° West 103 119 6,600  Level Chicago Center
Mon 11:44:52 AM 40.8953 -86.3528 309° West 103 119 6,600 -49 Level Chicago Center
Mon 11:45:53 AM 40.9147 -86.3831 310° West 106 122 6,500 -49 Descending Chicago Center
Mon 11:46:55 AM 40.9336 -86.4094 313° West 100 115 6,500  Level Chicago Center
Mon 11:47:57 AM 40.9514 -86.4489 301° West 103 119 6,500 48 Level Chicago Center
Mon 11:48:59 AM 40.9714 -86.4758 315° West 103 119 6,600 48 Climbing Chicago Center
Mon 11:50:01 AM 40.9906 -86.5047 311° West 104 120 6,600  Level Chicago Center
Mon 11:51:03 AM 41.0069 -86.5347 306° West 100 115 6,600  Level Chicago Center
Mon 11:52:05 AM 41.0225 -86.5667 303° West 102 117 6,600  Level Chicago Center
Mon 11:53:07 AM 41.0428 -86.5922 316° Northwest 100 115 6,600  Level Chicago Center
Mon 11:54:09 AM 41.0642 -86.6264 310° West 99 114 6,600  Level Chicago Center
Mon 11:55:11 AM 41.0794 -86.6592 302° West 103 119 6,600  Level Chicago Center
Mon 11:56:13 AM 41.0967 -86.6883 308° West 102 117 6,600  Level Chicago Center
Mon 11:57:15 AM 41.1164 -86.7153 314° West 102 117 6,600 48 Level Chicago Center
Mon 11:58:17 AM 41.1347 -86.7519 304° West 103 119 6,700 -290 Climbing Chicago Center
Mon 11:59:19 AM 41.1553 -86.7775 317° Northwest 102 117 6,000 -823 Descending Chicago Center
Mon 12:00:21 PM 41.1692 -86.8131 297° West 107 123 5,000 -726 Descending Chicago Center
Mon 12:01:23 PM 41.1894 -86.8431 312° West 110 127 4,500 -484 Descending Chicago Center

Login

Don't have an account? Register now (free) for customized features, flight alerts, and more!